sensor_id;sensor_type;location;lat;lon;timestamp;temperature;humidity
12911;DHT22;6523;49.758;6.120;2022-10-31T00:00:21;8.50;99.90
12911;DHT22;6523;49.758;6.120;2022-10-31T00:02:47;8.60;99.90
12911;DHT22;6523;49.758;6.120;2022-10-31T00:05:13;8.80;99.90
12911;DHT22;6523;49.758;6.120;2022-10-31T00:07:38;8.90;99.90
12911;DHT22;6523;49.758;6.120;2022-10-31T00:10:04;8.90;99.90
12911;DHT22;6523;49.758;6.120;2022-10-31T00:12:30;9.00;99.90
12911;DHT22;6523;49.758;6.120;2022-10-31T00:14:55;8.90;99.90
12911;DHT22;6523;49.758;6.120;2022-10-31T00:17:21;8.70;99.90
12911;DHT22;6523;49.758;6.120;2022-10-31T00:19:47;8.60;99.90
12911;DHT22;6523;49.758;6.120;2022-10-31T00:22:12;8.50;99.90
12911;DHT22;6523;49.758;6.120;2022-10-31T00:24:38;8.60;99.90
12911;DHT22;6523;49.758;6.120;2022-10-31T00:27:03;8.50;99.90
12911;DHT22;6523;49.758;6.120;2022-10-31T00:29:29;8.40;99.90
12911;DHT22;6523;49.758;6.120;2022-10-31T00:31:54;8.40;99.90
12911;DHT22;6523;49.758;6.120;2022-10-31T00:34:20;8.40;99.90
12911;DHT22;6523;49.758;6.120;2022-10-31T00:36:45;8.50;99.90
12911;DHT22;6523;49.758;6.120;2022-10-31T00:39:11;8.70;99.90
12911;DHT22;6523;49.758;6.120;2022-10-31T00:41:36;8.70;99.90
12911;DHT22;6523;49.758;6.120;2022-10-31T00:44:02;8.60;99.90
12911;DHT22;6523;49.758;6.120;2022-10-31T00:46:27;8.70;99.90
12911;DHT22;6523;49.758;6.120;2022-10-31T00:48:53;8.80;99.90
12911;DHT22;6523;49.758;6.120;2022-10-31T00:51:19;9.00;99.90
12911;DHT22;6523;49.758;6.120;2022-10-31T00:53:44;9.00;99.90
12911;DHT22;6523;49.758;6.120;2022-10-31T00:56:10;9.00;99.90
12911;DHT22;6523;49.758;6.120;2022-10-31T00:58:35;9.00;99.90
12911;DHT22;6523;49.758;6.120;2022-10-31T01:01:01;9.00;99.90
12911;DHT22;6523;49.758;6.120;2022-10-31T01:03:29;9.00;99.90
12911;DHT22;6523;49.758;6.120;2022-10-31T01:05:57;9.00;99.90
12911;DHT22;6523;49.758;6.120;2022-10-31T01:08:23;9.00;99.90
12911;DHT22;6523;49.758;6.120;2022-10-31T01:11:01;9.00;99.90
12911;DHT22;6523;49.758;6.120;2022-10-31T01:13:28;9.00;99.90
12911;DHT22;6523;49.758;6.120;2022-10-31T01:15:55;8.90;99.90
12911;DHT22;6523;49.758;6.120;2022-10-31T01:18:21;8.90;99.90
12911;DHT22;6523;49.758;6.120;2022-10-31T01:20:46;8.90;99.90
12911;DHT22;6523;49.758;6.120;2022-10-31T01:23:12;9.00;99.90
12911;DHT22;6523;49.758;6.120;2022-10-31T01:25:38;9.00;99.90
12911;DHT22;6523;49.758;6.120;2022-10-31T01:28:03;8.90;99.90
12911;DHT22;6523;49.758;6.120;2022-10-31T01:30:29;8.80;99.90
12911;DHT22;6523;49.758;6.120;2022-10-31T01:32:54;8.80;99.90
12911;DHT22;6523;49.758;6.120;2022-10-31T01:35:20;8.80;99.90
12911;DHT22;6523;49.758;6.120;2022-10-31T01:37:46;8.60;99.90
12911;DHT22;6523;49.758;6.120;2022-10-31T01:40:11;8.60;99.90
12911;DHT22;6523;49.758;6.120;2022-10-31T01:42:37;8.60;99.90
12911;DHT22;6523;49.758;6.120;2022-10-31T01:45:03;8.70;99.90
12911;DHT22;6523;49.758;6.120;2022-10-31T01:47:40;8.90;99.90
12911;DHT22;6523;49.758;6.120;2022-10-31T01:50:13;8.90;99.90
12911;DHT22;6523;49.758;6.120;2022-10-31T01:52:45;8.90;99.90
12911;DHT22;6523;49.758;6.120;2022-10-31T01:55:20;8.90;99.90
12911;DHT22;6523;49.758;6.120;2022-10-31T01:57:52;8.80;99.90
12911;DHT22;6523;49.758;6.120;2022-10-31T02:00:19;8.80;99.90
12911;DHT22;6523;49.758;6.120;2022-10-31T02:02:46;8.80;99.90
12911;DHT22;6523;49.758;6.120;2022-10-31T02:05:17;8.90;99.90
12911;DHT22;6523;49.758;6.120;2022-10-31T02:10:19;8.80;99.90
12911;DHT22;6523;49.758;6.120;2022-10-31T02:12:47;8.80;99.90
12911;DHT22;6523;49.758;6.120;2022-10-31T02:15:12;8.70;99.90
12911;DHT22;6523;49.758;6.120;2022-10-31T02:17:38;8.80;99.90
12911;DHT22;6523;49.758;6.120;2022-10-31T02:20:18;8.70;99.90
12911;DHT22;6523;49.758;6.120;2022-10-31T02:25:51;8.80;99.90
12911;DHT22;6523;49.758;6.120;2022-10-31T02:29:05;8.70;99.90
12911;DHT22;6523;49.758;6.120;2022-10-31T02:31:34;8.70;99.90
12911;DHT22;6523;49.758;6.120;2022-10-31T02:37:41;8.90;99.90
12911;DHT22;6523;49.758;6.120;2022-10-31T02:39:58;8.90;99.90
12911;DHT22;6523;49.758;6.120;2022-10-31T02:42:33;8.90;99.90
12911;DHT22;6523;49.758;6.120;2022-10-31T02:45:25;8.90;99.90
12911;DHT22;6523;49.758;6.120;2022-10-31T02:47:55;8.70;99.90
12911;DHT22;6523;49.758;6.120;2022-10-31T02:50:28;8.70;99.90
12911;DHT22;6523;49.758;6.120;2022-10-31T02:52:54;8.60;99.90
12911;DHT22;6523;49.758;6.120;2022-10-31T02:57:54;8.70;99.90
12911;DHT22;6523;49.758;6.120;2022-10-31T03:00:21;8.60;99.90
12911;DHT22;6523;49.758;6.120;2022-10-31T03:08:06;8.60;99.90
12911;DHT22;6523;49.758;6.120;2022-10-31T03:15:51;8.60;99.90
12911;DHT22;6523;49.758;6.120;2022-10-31T03:18:21;8.40;99.90
12911;DHT22;6523;49.758;6.120;2022-10-31T03:20:53;8.40;99.90
12911;DHT22;6523;49.758;6.120;2022-10-31T03:23:22;8.40;99.90
12911;DHT22;6523;49.758;6.120;2022-10-31T03:25:48;8.30;99.90
12911;DHT22;6523;49.758;6.120;2022-10-31T03:28:17;8.30;99.90
12911;DHT22;6523;49.758;6.120;2022-10-31T03:30:45;8.30;99.90
12911;DHT22;6523;49.758;6.120;2022-10-31T03:33:17;8.40;99.90
12911;DHT22;6523;49.758;6.120;2022-10-31T03:35:48;8.30;99.90
12911;DHT22;6523;49.758;6.120;2022-10-31T03:38:17;8.30;99.90
12911;DHT22;6523;49.758;6.120;2022-10-31T03:40:46;8.30;99.90
12911;DHT22;6523;49.758;6.120;2022-10-31T03:43:16;8.50;99.90
12911;DHT22;6523;49.758;6.120;2022-10-31T03:45:46;8.50;99.90
12911;DHT22;6523;49.758;6.120;2022-10-31T03:48:18;8.40;99.90
12911;DHT22;6523;49.758;6.120;2022-10-31T03:51:08;8.20;99.90
12911;DHT22;6523;49.758;6.120;2022-10-31T03:53:41;8.30;99.90
12911;DHT22;6523;49.758;6.120;2022-10-31T03:58:56;8.20;99.90
12911;DHT22;6523;49.758;6.120;2022-10-31T04:01:24;8.20;99.90
12911;DHT22;6523;49.758;6.120;2022-10-31T04:03:52;8.20;99.90
12911;DHT22;6523;49.758;6.120;2022-10-31T04:06:19;8.30;99.90
12911;DHT22;6523;49.758;6.120;2022-10-31T04:08:53;8.40;99.90
12911;DHT22;6523;49.758;6.120;2022-10-31T04:11:22;8.40;99.90
12911;DHT22;6523;49.758;6.120;2022-10-31T04:13:49;8.40;99.90
12911;DHT22;6523;49.758;6.120;2022-10-31T04:16:15;8.50;99.90
12911;DHT22;6523;49.758;6.120;2022-10-31T04:18:42;8.50;99.90
12911;DHT22;6523;49.758;6.120;2022-10-31T04:21:08;8.50;99.90
12911;DHT22;6523;49.758;6.120;2022-10-31T04:23:35;8.50;99.90
12911;DHT22;6523;49.758;6.120;2022-10-31T04:26:01;8.50;99.90
12911;DHT22;6523;49.758;6.120;2022-10-31T04:28:27;8.60;99.90
12911;DHT22;6523;49.758;6.120;2022-10-31T04:30:53;8.60;99.90
12911;DHT22;6523;49.758;6.120;2022-10-31T04:33:19;8.70;99.90
12911;DHT22;6523;49.758;6.120;2022-10-31T04:35:45;8.70;99.90
12911;DHT22;6523;49.758;6.120;2022-10-31T04:38:10;8.70;99.90
12911;DHT22;6523;49.758;6.120;2022-10-31T04:40:36;8.60;99.90
12911;DHT22;6523;49.758;6.120;2022-10-31T04:43:02;8.60;99.90
12911;DHT22;6523;49.758;6.120;2022-10-31T04:45:27;8.60;99.90
12911;DHT22;6523;49.758;6.120;2022-10-31T04:47:53;8.50;99.90
12911;DHT22;6523;49.758;6.120;2022-10-31T04:50:18;8.40;99.90
12911;DHT22;6523;49.758;6.120;2022-10-31T04:52:45;8.40;99.90
12911;DHT22;6523;49.758;6.120;2022-10-31T04:55:12;8.30;99.90
12911;DHT22;6523;49.758;6.120;2022-10-31T04:57:42;8.20;99.90
12911;DHT22;6523;49.758;6.120;2022-10-31T05:00:09;8.40;99.90
12911;DHT22;6523;49.758;6.120;2022-10-31T05:05:11;8.40;99.90
12911;DHT22;6523;49.758;6.120;2022-10-31T05:07:44;8.40;99.90
12911;DHT22;6523;49.758;6.120;2022-10-31T05:10:11;8.30;99.90
12911;DHT22;6523;49.758;6.120;2022-10-31T05:12:37;8.30;99.90
12911;DHT22;6523;49.758;6.120;2022-10-31T05:15:04;8.30;99.90
12911;DHT22;6523;49.758;6.120;2022-10-31T05:17:31;8.20;99.90
12911;DHT22;6523;49.758;6.120;2022-10-31T05:19:57;8.20;99.90
12911;DHT22;6523;49.758;6.120;2022-10-31T05:22:22;8.40;99.90
12911;DHT22;6523;49.758;6.120;2022-10-31T05:24:48;8.30;99.90
12911;DHT22;6523;49.758;6.120;2022-10-31T05:27:13;8.30;99.90
12911;DHT22;6523;49.758;6.120;2022-10-31T05:29:39;8.30;99.90
12911;DHT22;6523;49.758;6.120;2022-10-31T05:32:04;8.40;99.90
12911;DHT22;6523;49.758;6.120;2022-10-31T05:34:30;8.20;99.90
12911;DHT22;6523;49.758;6.120;2022-10-31T05:36:56;8.00;99.90
12911;DHT22;6523;49.758;6.120;2022-10-31T05:39:21;7.90;99.90
12911;DHT22;6523;49.758;6.120;2022-10-31T05:41:47;8.00;99.90
12911;DHT22;6523;49.758;6.120;2022-10-31T05:44:12;7.90;99.90
12911;DHT22;6523;49.758;6.120;2022-10-31T05:46:38;7.90;99.90
12911;DHT22;6523;49.758;6.120;2022-10-31T05:49:04;7.80;99.90
12911;DHT22;6523;49.758;6.120;2022-10-31T05:51:29;7.70;99.90
12911;DHT22;6523;49.758;6.120;2022-10-31T05:53:55;7.80;99.90
12911;DHT22;6523;49.758;6.120;2022-10-31T05:56:20;7.90;99.90
12911;DHT22;6523;49.758;6.120;2022-10-31T05:58:46;7.90;99.90
12911;DHT22;6523;49.758;6.120;2022-10-31T06:01:11;7.80;99.90
12911;DHT22;6523;49.758;6.120;2022-10-31T06:03:37;7.80;99.90
12911;DHT22;6523;49.758;6.120;2022-10-31T06:06:02;7.90;99.90
12911;DHT22;6523;49.758;6.120;2022-10-31T06:08:28;7.70;99.90
12911;DHT22;6523;49.758;6.120;2022-10-31T06:10:54;7.70;99.90
12911;DHT22;6523;49.758;6.120;2022-10-31T06:13:19;7.70;99.90
12911;DHT22;6523;49.758;6.120;2022-10-31T06:15:45;7.80;99.90
12911;DHT22;6523;49.758;6.120;2022-10-31T06:18:10;7.70;99.90
12911;DHT22;6523;49.758;6.120;2022-10-31T06:20:36;7.80;99.90
12911;DHT22;6523;49.758;6.120;2022-10-31T06:23:02;7.80;99.90
12911;DHT22;6523;49.758;6.120;2022-10-31T06:25:28;7.90;99.90
12911;DHT22;6523;49.758;6.120;2022-10-31T06:27:54;8.00;99.90
12911;DHT22;6523;49.758;6.120;2022-10-31T06:30:20;8.10;99.90
12911;DHT22;6523;49.758;6.120;2022-10-31T06:32:46;8.10;99.90
12911;DHT22;6523;49.758;6.120;2022-10-31T06:35:11;8.00;99.90
12911;DHT22;6523;49.758;6.120;2022-10-31T06:37:37;8.00;99.90
12911;DHT22;6523;49.758;6.120;2022-10-31T06:40:03;8.00;99.90
12911;DHT22;6523;49.758;6.120;2022-10-31T06:42:29;7.90;99.90
12911;DHT22;6523;49.758;6.120;2022-10-31T06:44:54;8.00;99.90
12911;DHT22;6523;49.758;6.120;2022-10-31T06:47:20;7.80;99.90
12911;DHT22;6523;49.758;6.120;2022-10-31T06:49:45;7.80;99.90
12911;DHT22;6523;49.758;6.120;2022-10-31T06:52:11;7.90;99.90
12911;DHT22;6523;49.758;6.120;2022-10-31T06:54:37;7.90;99.90
12911;DHT22;6523;49.758;6.120;2022-10-31T06:57:02;7.80;99.90
12911;DHT22;6523;49.758;6.120;2022-10-31T06:59:28;7.80;99.90
12911;DHT22;6523;49.758;6.120;2022-10-31T07:01:53;7.90;99.90
12911;DHT22;6523;49.758;6.120;2022-10-31T07:04:19;7.90;99.90
12911;DHT22;6523;49.758;6.120;2022-10-31T07:06:45;8.00;99.90
12911;DHT22;6523;49.758;6.120;2022-10-31T07:09:10;8.00;99.90
12911;DHT22;6523;49.758;6.120;2022-10-31T07:11:36;8.10;99.90
12911;DHT22;6523;49.758;6.120;2022-10-31T07:14:02;8.20;99.90
12911;DHT22;6523;49.758;6.120;2022-10-31T07:16:27;8.30;99.90
12911;DHT22;6523;49.758;6.120;2022-10-31T07:18:53;8.40;99.90
12911;DHT22;6523;49.758;6.120;2022-10-31T07:21:18;8.40;99.90
12911;DHT22;6523;49.758;6.120;2022-10-31T07:23:46;8.40;99.90
12911;DHT22;6523;49.758;6.120;2022-10-31T07:26:12;8.30;99.90
12911;DHT22;6523;49.758;6.120;2022-10-31T07:28:37;8.40;99.90
12911;DHT22;6523;49.758;6.120;2022-10-31T07:31:03;8.30;99.90
12911;DHT22;6523;49.758;6.120;2022-10-31T07:33:28;8.40;99.90
12911;DHT22;6523;49.758;6.120;2022-10-31T07:35:54;8.60;99.90
12911;DHT22;6523;49.758;6.120;2022-10-31T07:38:20;8.70;99.90
12911;DHT22;6523;49.758;6.120;2022-10-31T07:40:49;8.60;99.90
12911;DHT22;6523;49.758;6.120;2022-10-31T07:43:16;8.60;99.90
12911;DHT22;6523;49.758;6.120;2022-10-31T07:45:41;8.70;99.90
12911;DHT22;6523;49.758;6.120;2022-10-31T07:48:07;8.80;99.90
12911;DHT22;6523;49.758;6.120;2022-10-31T07:50:33;8.90;99.90
12911;DHT22;6523;49.758;6.120;2022-10-31T07:53:05;9.00;99.90
12911;DHT22;6523;49.758;6.120;2022-10-31T07:55:31;9.10;99.90
12911;DHT22;6523;49.758;6.120;2022-10-31T07:58:02;9.20;99.90
12911;DHT22;6523;49.758;6.120;2022-10-31T08:00:29;9.30;99.90
12911;DHT22;6523;49.758;6.120;2022-10-31T08:03:15;9.30;99.90
12911;DHT22;6523;49.758;6.120;2022-10-31T08:05:41;9.30;99.90
12911;DHT22;6523;49.758;6.120;2022-10-31T08:08:07;9.10;99.90
12911;DHT22;6523;49.758;6.120;2022-10-31T08:10:34;9.10;99.90
12911;DHT22;6523;49.758;6.120;2022-10-31T08:13:08;9.20;99.90
12911;DHT22;6523;49.758;6.120;2022-10-31T08:15:34;9.10;99.90
12911;DHT22;6523;49.758;6.120;2022-10-31T08:18:03;9.20;99.90
12911;DHT22;6523;49.758;6.120;2022-10-31T08:20:29;9.30;99.90
12911;DHT22;6523;49.758;6.120;2022-10-31T08:22:56;9.50;99.90
12911;DHT22;6523;49.758;6.120;2022-10-31T08:25:23;9.60;99.90
12911;DHT22;6523;49.758;6.120;2022-10-31T08:27:51;9.60;99.90
12911;DHT22;6523;49.758;6.120;2022-10-31T08:30:17;9.60;99.90
12911;DHT22;6523;49.758;6.120;2022-10-31T08:32:43;9.60;99.90
12911;DHT22;6523;49.758;6.120;2022-10-31T08:35:08;9.70;99.90
12911;DHT22;6523;49.758;6.120;2022-10-31T08:37:34;9.70;99.90
12911;DHT22;6523;49.758;6.120;2022-10-31T08:39:59;9.80;99.90
12911;DHT22;6523;49.758;6.120;2022-10-31T08:42:25;9.80;99.90
12911;DHT22;6523;49.758;6.120;2022-10-31T08:44:50;9.90;99.90
12911;DHT22;6523;49.758;6.120;2022-10-31T08:47:16;9.90;99.90
12911;DHT22;6523;49.758;6.120;2022-10-31T08:49:41;9.80;99.90
12911;DHT22;6523;49.758;6.120;2022-10-31T08:52:07;9.90;99.90
12911;DHT22;6523;49.758;6.120;2022-10-31T08:54:32;10.00;99.90
12911;DHT22;6523;49.758;6.120;2022-10-31T08:56:58;10.10;99.90
12911;DHT22;6523;49.758;6.120;2022-10-31T08:59:24;10.00;99.90
12911;DHT22;6523;49.758;6.120;2022-10-31T09:01:49;10.10;99.90
12911;DHT22;6523;49.758;6.120;2022-10-31T09:04:15;10.20;99.90
12911;DHT22;6523;49.758;6.120;2022-10-31T09:06:40;10.30;99.90
12911;DHT22;6523;49.758;6.120;2022-10-31T09:09:06;10.40;99.90
12911;DHT22;6523;49.758;6.120;2022-10-31T09:11:32;10.50;99.90
12911;DHT22;6523;49.758;6.120;2022-10-31T09:13:57;10.50;99.90
12911;DHT22;6523;49.758;6.120;2022-10-31T09:16:23;10.50;99.90
12911;DHT22;6523;49.758;6.120;2022-10-31T09:18:48;10.60;99.90
12911;DHT22;6523;49.758;6.120;2022-10-31T09:21:14;10.80;99.90
12911;DHT22;6523;49.758;6.120;2022-10-31T09:23:39;11.00;99.90
12911;DHT22;6523;49.758;6.120;2022-10-31T09:26:05;11.10;99.90
12911;DHT22;6523;49.758;6.120;2022-10-31T09:28:31;11.20;99.90
12911;DHT22;6523;49.758;6.120;2022-10-31T09:30:57;11.30;99.90
12911;DHT22;6523;49.758;6.120;2022-10-31T09:33:23;11.40;99.90
12911;DHT22;6523;49.758;6.120;2022-10-31T09:35:48;11.40;99.90
12911;DHT22;6523;49.758;6.120;2022-10-31T09:38:16;11.40;99.90
12911;DHT22;6523;49.758;6.120;2022-10-31T09:40:46;11.40;99.90
12911;DHT22;6523;49.758;6.120;2022-10-31T09:46:04;11.40;99.90
12911;DHT22;6523;49.758;6.120;2022-10-31T09:48:44;11.50;99.90
12911;DHT22;6523;49.758;6.120;2022-10-31T09:51:22;11.70;99.90
12911;DHT22;6523;49.758;6.120;2022-10-31T09:53:53;11.70;99.90
12911;DHT22;6523;49.758;6.120;2022-10-31T09:56:21;11.70;99.90
12911;DHT22;6523;49.758;6.120;2022-10-31T09:58:51;11.80;99.90
12911;DHT22;6523;49.758;6.120;2022-10-31T10:01:47;11.90;99.90
12911;DHT22;6523;49.758;6.120;2022-10-31T10:04:29;12.00;99.90
12911;DHT22;6523;49.758;6.120;2022-10-31T10:06:56;12.10;99.90
12911;DHT22;6523;49.758;6.120;2022-10-31T10:09:25;12.20;99.90
12911;DHT22;6523;49.758;6.120;2022-10-31T10:25:16;12.70;99.90
12911;DHT22;6523;49.758;6.120;2022-10-31T10:27:55;12.80;99.90
12911;DHT22;6523;49.758;6.120;2022-10-31T10:30:44;12.90;99.90
12911;DHT22;6523;49.758;6.120;2022-10-31T10:33:16;13.10;99.90
12911;DHT22;6523;49.758;6.120;2022-10-31T10:35:52;13.20;99.90
12911;DHT22;6523;49.758;6.120;2022-10-31T10:38:36;13.30;99.90
12911;DHT22;6523;49.758;6.120;2022-10-31T10:41:09;13.20;99.90
12911;DHT22;6523;49.758;6.120;2022-10-31T10:43:38;13.60;99.90
12911;DHT22;6523;49.758;6.120;2022-10-31T10:46:17;13.60;99.90
12911;DHT22;6523;49.758;6.120;2022-10-31T10:54:46;13.90;99.90
12911;DHT22;6523;49.758;6.120;2022-10-31T10:57:32;14.10;99.90
12911;DHT22;6523;49.758;6.120;2022-10-31T11:02:43;14.60;99.90
12911;DHT22;6523;49.758;6.120;2022-10-31T11:06:00;14.70;99.90
12911;DHT22;6523;49.758;6.120;2022-10-31T11:08:01;14.60;99.90
12911;DHT22;6523;49.758;6.120;2022-10-31T11:10:26;14.70;99.90
12911;DHT22;6523;49.758;6.120;2022-10-31T11:13:22;14.70;99.90
12911;DHT22;6523;49.758;6.120;2022-10-31T11:16:07;14.90;99.90
12911;DHT22;6523;49.758;6.120;2022-10-31T11:18:44;14.90;99.90
12911;DHT22;6523;49.758;6.120;2022-10-31T11:21:21;14.90;99.90
12911;DHT22;6523;49.758;6.120;2022-10-31T11:23:49;15.00;99.90
12911;DHT22;6523;49.758;6.120;2022-10-31T11:26:21;14.80;99.90
12911;DHT22;6523;49.758;6.120;2022-10-31T11:28:57;14.90;99.90
12911;DHT22;6523;49.758;6.120;2022-10-31T11:31:25;15.00;99.90
12911;DHT22;6523;49.758;6.120;2022-10-31T11:34:01;15.20;99.90
12911;DHT22;6523;49.758;6.120;2022-10-31T11:36:30;15.30;99.90
12911;DHT22;6523;49.758;6.120;2022-10-31T11:38:58;15.40;99.90
12911;DHT22;6523;49.758;6.120;2022-10-31T11:41:30;15.50;99.90
12911;DHT22;6523;49.758;6.120;2022-10-31T11:44:03;15.50;99.90
12911;DHT22;6523;49.758;6.120;2022-10-31T11:46:44;15.50;99.90
12911;DHT22;6523;49.758;6.120;2022-10-31T11:51:50;15.70;99.90
12911;DHT22;6523;49.758;6.120;2022-10-31T11:57:30;15.90;99.90
12911;DHT22;6523;49.758;6.120;2022-10-31T11:59:58;15.80;99.90
12911;DHT22;6523;49.758;6.120;2022-10-31T12:02:24;15.90;99.90
12911;DHT22;6523;49.758;6.120;2022-10-31T12:07:28;16.10;99.90
12911;DHT22;6523;49.758;6.120;2022-10-31T12:09:54;16.00;99.90
12911;DHT22;6523;49.758;6.120;2022-10-31T12:12:27;16.20;99.90
12911;DHT22;6523;49.758;6.120;2022-10-31T12:18:06;16.20;99.90
12911;DHT22;6523;49.758;6.120;2022-10-31T12:20:56;16.30;99.90
12911;DHT22;6523;49.758;6.120;2022-10-31T12:23:50;16.40;99.90
12911;DHT22;6523;49.758;6.120;2022-10-31T12:26:19;16.60;99.90
12911;DHT22;6523;49.758;6.120;2022-10-31T12:37:15;16.80;99.90
12911;DHT22;6523;49.758;6.120;2022-10-31T12:45:35;17.50;99.90
12911;DHT22;6523;49.758;6.120;2022-10-31T12:51:48;17.40;99.90
12911;DHT22;6523;49.758;6.120;2022-10-31T12:57:26;17.20;99.90
12911;DHT22;6523;49.758;6.120;2022-10-31T13:00:12;17.00;99.90
12911;DHT22;6523;49.758;6.120;2022-10-31T13:03:14;17.00;99.90
12911;DHT22;6523;49.758;6.120;2022-10-31T13:05:47;17.10;99.90
12911;DHT22;6523;49.758;6.120;2022-10-31T13:08:17;17.80;99.90
12911;DHT22;6523;49.758;6.120;2022-10-31T13:11:24;18.70;99.90
12911;DHT22;6523;49.758;6.120;2022-10-31T13:13:48;19.10;99.90
12911;DHT22;6523;49.758;6.120;2022-10-31T13:16:18;19.90;99.90
12911;DHT22;6523;49.758;6.120;2022-10-31T13:19:00;20.10;99.90
12911;DHT22;6523;49.758;6.120;2022-10-31T13:21:44;20.20;99.90
12911;DHT22;6523;49.758;6.120;2022-10-31T13:24:19;20.20;99.90
12911;DHT22;6523;49.758;6.120;2022-10-31T13:26:52;20.30;99.90
12911;DHT22;6523;49.758;6.120;2022-10-31T13:31:50;20.10;99.90
12911;DHT22;6523;49.758;6.120;2022-10-31T13:34:37;19.90;99.90
12911;DHT22;6523;49.758;6.120;2022-10-31T13:37:31;19.00;99.90
12911;DHT22;6523;49.758;6.120;2022-10-31T13:40:30;18.60;99.90
12911;DHT22;6523;49.758;6.120;2022-10-31T13:43:24;18.30;99.90
12911;DHT22;6523;49.758;6.120;2022-10-31T13:45:53;18.30;99.90
12911;DHT22;6523;49.758;6.120;2022-10-31T13:48:34;18.10;99.90
12911;DHT22;6523;49.758;6.120;2022-10-31T13:51:05;18.20;99.90
12911;DHT22;6523;49.758;6.120;2022-10-31T13:58:33;18.50;99.90
12911;DHT22;6523;49.758;6.120;2022-10-31T14:03:33;18.50;99.90
12911;DHT22;6523;49.758;6.120;2022-10-31T14:06:00;18.50;99.90
12911;DHT22;6523;49.758;6.120;2022-10-31T14:08:27;18.50;99.90
12911;DHT22;6523;49.758;6.120;2022-10-31T14:10:55;18.50;99.90
12911;DHT22;6523;49.758;6.120;2022-10-31T14:13:47;18.50;99.90
12911;DHT22;6523;49.758;6.120;2022-10-31T14:16:28;18.60;99.90
12911;DHT22;6523;49.758;6.120;2022-10-31T14:19:06;19.30;99.90
12911;DHT22;6523;49.758;6.120;2022-10-31T14:21:44;19.90;99.90
12911;DHT22;6523;49.758;6.120;2022-10-31T14:26:59;20.00;99.90
12911;DHT22;6523;49.758;6.120;2022-10-31T14:29:30;19.70;99.90
12911;DHT22;6523;49.758;6.120;2022-10-31T14:38:14;19.90;99.90
12911;DHT22;6523;49.758;6.120;2022-10-31T14:46:40;18.80;99.90
12911;DHT22;6523;49.758;6.120;2022-10-31T14:51:44;18.50;99.90
12911;DHT22;6523;49.758;6.120;2022-10-31T14:54:24;18.50;99.90
12911;DHT22;6523;49.758;6.120;2022-10-31T14:56:56;18.60;99.90
12911;DHT22;6523;49.758;6.120;2022-10-31T14:59:31;18.90;99.90
12911;DHT22;6523;49.758;6.120;2022-10-31T15:02:14;19.00;99.90
12911;DHT22;6523;49.758;6.120;2022-10-31T15:04:43;19.20;99.90
12911;DHT22;6523;49.758;6.120;2022-10-31T15:07:17;19.40;99.90
12911;DHT22;6523;49.758;6.120;2022-10-31T15:09:44;19.40;99.90
12911;DHT22;6523;49.758;6.120;2022-10-31T15:12:37;19.40;99.90
12911;DHT22;6523;49.758;6.120;2022-10-31T15:15:20;19.40;99.90
12911;DHT22;6523;49.758;6.120;2022-10-31T15:17:55;19.50;99.90
12911;DHT22;6523;49.758;6.120;2022-10-31T15:20:24;19.40;99.90
12911;DHT22;6523;49.758;6.120;2022-10-31T15:22:51;19.10;99.90
12911;DHT22;6523;49.758;6.120;2022-10-31T15:25:20;18.80;99.90
12911;DHT22;6523;49.758;6.120;2022-10-31T15:27:47;18.80;99.90
12911;DHT22;6523;49.758;6.120;2022-10-31T15:32:44;18.40;99.90
12911;DHT22;6523;49.758;6.120;2022-10-31T15:35:10;18.00;99.90
12911;DHT22;6523;49.758;6.120;2022-10-31T15:37:36;17.90;99.90
12911;DHT22;6523;49.758;6.120;2022-10-31T15:40:15;17.60;99.90
12911;DHT22;6523;49.758;6.120;2022-10-31T15:42:49;17.50;99.90
12911;DHT22;6523;49.758;6.120;2022-10-31T15:45:19;17.70;99.90
12911;DHT22;6523;49.758;6.120;2022-10-31T15:50:38;17.20;99.90
12911;DHT22;6523;49.758;6.120;2022-10-31T15:53:11;17.10;99.90
12911;DHT22;6523;49.758;6.120;2022-10-31T15:55:48;17.30;99.90
12911;DHT22;6523;49.758;6.120;2022-10-31T15:58:15;16.90;99.90
12911;DHT22;6523;49.758;6.120;2022-10-31T16:00:41;16.60;99.90
12911;DHT22;6523;49.758;6.120;2022-10-31T16:05:45;16.10;99.90
12911;DHT22;6523;49.758;6.120;2022-10-31T16:16:21;15.50;99.90
12911;DHT22;6523;49.758;6.120;2022-10-31T16:18:49;15.50;99.90
12911;DHT22;6523;49.758;6.120;2022-10-31T16:21:15;15.50;99.90
12911;DHT22;6523;49.758;6.120;2022-10-31T16:23:46;15.50;99.90
12911;DHT22;6523;49.758;6.120;2022-10-31T16:26:18;15.70;99.90
12911;DHT22;6523;49.758;6.120;2022-10-31T16:28:58;15.50;99.90
12911;DHT22;6523;49.758;6.120;2022-10-31T16:31:38;15.40;99.90
12911;DHT22;6523;49.758;6.120;2022-10-31T16:34:15;15.50;99.90
12911;DHT22;6523;49.758;6.120;2022-10-31T16:36:41;15.60;99.90
12911;DHT22;6523;49.758;6.120;2022-10-31T16:39:07;15.40;99.90
12911;DHT22;6523;49.758;6.120;2022-10-31T16:41:41;15.20;99.90
12911;DHT22;6523;49.758;6.120;2022-10-31T16:44:34;15.10;99.90
12911;DHT22;6523;49.758;6.120;2022-10-31T16:47:16;15.40;99.90
12911;DHT22;6523;49.758;6.120;2022-10-31T16:49:43;15.40;99.90
12911;DHT22;6523;49.758;6.120;2022-10-31T16:52:09;15.20;99.90
12911;DHT22;6523;49.758;6.120;2022-10-31T16:54:34;15.20;99.90
12911;DHT22;6523;49.758;6.120;2022-10-31T16:57:01;15.10;99.90
12911;DHT22;6523;49.758;6.120;2022-10-31T16:59:27;14.90;99.90
12911;DHT22;6523;49.758;6.120;2022-10-31T17:01:55;15.30;99.90
12911;DHT22;6523;49.758;6.120;2022-10-31T17:04:21;15.20;99.90
12911;DHT22;6523;49.758;6.120;2022-10-31T17:06:46;15.20;99.90
12911;DHT22;6523;49.758;6.120;2022-10-31T17:09:12;15.20;99.90
12911;DHT22;6523;49.758;6.120;2022-10-31T17:11:45;15.10;99.90
12911;DHT22;6523;49.758;6.120;2022-10-31T17:14:12;15.20;99.90
12911;DHT22;6523;49.758;6.120;2022-10-31T17:16:37;15.10;99.90
12911;DHT22;6523;49.758;6.120;2022-10-31T17:19:03;14.90;99.90
12911;DHT22;6523;49.758;6.120;2022-10-31T17:21:29;14.70;99.90
12911;DHT22;6523;49.758;6.120;2022-10-31T17:23:55;14.70;99.90
12911;DHT22;6523;49.758;6.120;2022-10-31T17:26:21;14.80;99.90
12911;DHT22;6523;49.758;6.120;2022-10-31T17:28:46;14.70;99.90
12911;DHT22;6523;49.758;6.120;2022-10-31T17:31:23;14.50;99.90
12911;DHT22;6523;49.758;6.120;2022-10-31T17:33:50;14.40;99.90
12911;DHT22;6523;49.758;6.120;2022-10-31T17:36:16;14.30;99.90
12911;DHT22;6523;49.758;6.120;2022-10-31T17:38:41;14.30;99.90
12911;DHT22;6523;49.758;6.120;2022-10-31T17:41:07;14.70;99.90
12911;DHT22;6523;49.758;6.120;2022-10-31T17:43:33;14.60;99.90
12911;DHT22;6523;49.758;6.120;2022-10-31T17:45:59;14.40;99.90
12911;DHT22;6523;49.758;6.120;2022-10-31T17:48:27;14.30;99.90
12911;DHT22;6523;49.758;6.120;2022-10-31T17:50:52;14.40;99.90
12911;DHT22;6523;49.758;6.120;2022-10-31T17:53:18;14.30;99.90
12911;DHT22;6523;49.758;6.120;2022-10-31T17:55:44;14.10;99.90
12911;DHT22;6523;49.758;6.120;2022-10-31T17:58:10;14.00;99.90
12911;DHT22;6523;49.758;6.120;2022-10-31T18:00:39;13.90;99.90
12911;DHT22;6523;49.758;6.120;2022-10-31T18:03:08;13.70;99.90
12911;DHT22;6523;49.758;6.120;2022-10-31T18:05:33;13.50;99.90
12911;DHT22;6523;49.758;6.120;2022-10-31T18:07:59;13.40;99.90
12911;DHT22;6523;49.758;6.120;2022-10-31T18:10:25;13.30;99.90
12911;DHT22;6523;49.758;6.120;2022-10-31T18:12:51;13.50;99.90
12911;DHT22;6523;49.758;6.120;2022-10-31T18:15:17;13.40;99.90
12911;DHT22;6523;49.758;6.120;2022-10-31T18:17:43;13.30;99.90